PWSweather.com
Personal Weather Stations
Station Observations
KOHAVON11
Long Road Station, Avon, OH 44011

Long Road StationAvon, OH 44011

Lat: 41.437, Lon: -82.0477

Elevation: 686

Station Type: Davis Vantage Pro2

http://www.avon-weather.com

High Low Average
Temperature 50.8°F10.4°C 46.7°F8.2°C 49.0°F9.4°C
Dew Point 39.9°F4.4°C 34.2°F1.2°C 37.2°F2.9°C
Winds 15.0 mph 24.1 kmh Calm Calm 4.0 mph WSW6.4 kmh WSW
Wind Gusts 24.0 mph38.6 kmh -- 12.0 mph19.3 kmh
Humidity 76% 56% 65%
Pressure 29.94 in1013.9 mb 29.72 in1006.4 mb -
Precipitation 0.01 in0.3 mm - -
Hour Temp Dew Point Humidity Winds Wind Gusts Pressure Precip Precip Rate Daily Precip Total
12:00 AM 46.9°F8.3°C 41.0°F5.0°C 80% 2.0 mph NW3.2 kmh NW 17.0 mph27.4 kmh 29.72 in1006.4 mb 0.00 in0.0 mm 0.00 in0.0 mm 0.00 in0.0 mm
12:05 AM 46.7°F8.2°C 41.1°F5.1°C 81% 5.0 mph NW8.0 kmh NW 17.0 mph27.4 kmh 29.72 in1006.4 mb 0.00 in0.0 mm 0.00 in0.0 mm 0.00 in0.0 mm
12:10 AM 46.7°F8.2°C 41.1°F5.1°C 81% 5.0 mph W8.0 kmh W 17.0 mph27.4 kmh 29.73 in1006.8 mb 0.00 in0.0 mm 0.00 in0.0 mm 0.00 in0.0 mm
12:15 AM 46.7°F8.2°C 41.1°F5.1°C 81% 8.0 mph NW12.9 kmh NW 17.0 mph27.4 kmh 29.72 in1006.4 mb 0.00 in0.0 mm 0.00 in0.0 mm 0.00 in0.0 mm
12:20 AM 46.8°F8.2°C 41.2°F5.1°C 81% 7.0 mph WNW11.3 kmh WNW 14.0 mph22.5 kmh 29.72 in1006.4 mb 0.00 in0.0 mm 0.00 in0.0 mm 0.00 in0.0 mm
12:25 AM 46.9°F8.3°C 41.0°F5.0°C 80% 6.0 mph NW9.7 kmh NW 18.0 mph29.0 kmh 29.72 in1006.4 mb 0.00 in0.0 mm 0.00 in0.0 mm 0.00 in0.0 mm
12:30 AM 47.1°F8.4°C 40.8°F4.9°C 79% 5.0 mph WNW8.0 kmh WNW 18.0 mph29.0 kmh 29.72 in1006.4 mb 0.00 in0.0 mm 0.00 in0.0 mm 0.00 in0.0 mm
12:35 AM 47.3°F8.5°C 40.4°F4.7°C 77% 13.0 mph WSW20.9 kmh WSW 18.0 mph29.0 kmh 29.72 in1006.4 mb 0.00 in0.0 mm 0.00 in0.0 mm 0.00 in0.0 mm
12:40 AM 47.6°F8.7°C 40.0°F4.4°C 75% 8.0 mph NW12.9 kmh NW 24.0 mph38.6 kmh 29.72 in1006.4 mb 0.00 in0.0 mm 0.00 in0.0 mm 0.00 in0.0 mm
12:45 AM 47.9°F8.8°C 39.2°F4.0°C 72% 5.0 mph W8.0 kmh W 24.0 mph38.6 kmh 29.72 in1006.4 mb 0.00 in0.0 mm 0.00 in0.0 mm 0.00 in0.0 mm
12:50 AM 48.0°F8.9°C 38.9°F3.8°C 71% 3.0 mph NW4.8 kmh NW 24.0 mph38.6 kmh 29.72 in1006.4 mb 0.00 in0.0 mm 0.00 in0.0 mm 0.00 in0.0 mm
12:55 AM 48.1°F8.9°C 39.0°F3.9°C 71% Calm Calm 24.0 mph38.6 kmh 29.72 in1006.4 mb 0.00 in0.0 mm 0.00 in0.0 mm 0.00 in0.0 mm
01:00 AM 48.2°F9.0°C 39.1°F3.9°C 71% 7.0 mph NNW11.3 kmh NNW 16.0 mph25.7 kmh 29.73 in1006.8 mb 0.00 in0.0 mm 0.00 in0.0 mm 0.00 in0.0 mm
01:05 AM 48.0°F8.9°C 39.3°F4.1°C 72% 5.0 mph W8.0 kmh W 16.0 mph25.7 kmh 29.73 in1006.8 mb 0.00 in0.0 mm 0.00 in0.0 mm 0.00 in0.0 mm
01:10 AM 47.8°F8.8°C 39.8°F4.3°C 74% 5.0 mph NW8.0 kmh NW 14.0 mph22.5 kmh 29.72 in1006.4 mb 0.00 in0.0 mm 0.00 in0.0 mm 0.01 in0.3 mm
01:15 AM 47.5°F8.6°C 39.9°F4.4°C 75% 6.0 mph W9.7 kmh W 17.0 mph27.4 kmh 29.72 in1006.4 mb 0.00 in0.0 mm 0.00 in0.0 mm 0.01 in0.3 mm
01:20 AM 47.2°F8.4°C 39.9°F4.4°C 76% 7.0 mph WNW11.3 kmh WNW 17.0 mph27.4 kmh 29.72 in1006.4 mb 0.00 in0.0 mm 0.00 in0.0 mm 0.01 in0.3 mm
01:25 AM 47.0°F8.3°C 39.7°F4.3°C 76% 6.0 mph WNW9.7 kmh WNW 20.0 mph32.2 kmh 29.72 in1006.4 mb 0.00 in0.0 mm 0.00 in0.0 mm 0.01 in0.3 mm
01:30 AM 46.9°F8.3°C 39.6°F4.2°C 76% 7.0 mph WNW11.3 kmh WNW 20.0 mph32.2 kmh 29.73 in1006.8 mb 0.00 in0.0 mm 0.00 in0.0 mm 0.01 in0.3 mm
01:35 AM 47.0°F8.3°C 39.7°F4.3°C 76% 4.0 mph WNW6.4 kmh WNW 20.0 mph32.2 kmh 29.73 in1006.8 mb 0.00 in0.0 mm 0.00 in0.0 mm 0.01 in0.3 mm
01:40 AM 47.0°F8.3°C 39.4°F4.1°C 75% 2.0 mph WNW3.2 kmh WNW 20.0 mph32.2 kmh 29.73 in1006.8 mb 0.00 in0.0 mm 0.00 in0.0 mm 0.01 in0.3 mm
01:45 AM 47.1°F8.4°C 39.1°F3.9°C 74% 11.0 mph WSW17.7 kmh WSW 18.0 mph29.0 kmh 29.73 in1006.8 mb 0.00 in0.0 mm 0.00 in0.0 mm 0.01 in0.3 mm
01:50 AM 47.3°F8.5°C 39.0°F3.9°C 73% 11.0 mph WNW17.7 kmh WNW 18.0 mph29.0 kmh 29.73 in1006.8 mb 0.00 in0.0 mm 0.00 in0.0 mm 0.01 in0.3 mm
01:55 AM 47.5°F8.6°C 38.8°F3.8°C 72% 3.0 mph WNW4.8 kmh WNW 16.0 mph25.7 kmh 29.73 in1006.8 mb 0.00 in0.0 mm 0.00 in0.0 mm 0.01 in0.3 mm
02:00 AM 47.5°F8.6°C 38.4°F3.6°C 71% 13.0 mph WNW20.9 kmh WNW 20.0 mph32.2 kmh 29.73 in1006.8 mb 0.00 in0.0 mm 0.00 in0.0 mm 0.01 in0.3 mm
02:05 AM 47.6°F8.7°C 37.8°F3.2°C 69% 7.0 mph W11.3 kmh W 20.0 mph32.2 kmh 29.73 in1006.8 mb 0.00 in0.0 mm 0.00 in0.0 mm 0.01 in0.3 mm
02:10 AM 47.7°F8.7°C 37.9°F3.3°C 69% 5.0 mph WNW8.0 kmh WNW 24.0 mph38.6 kmh 29.73 in1006.8 mb 0.00 in0.0 mm 0.00 in0.0 mm 0.01 in0.3 mm
02:15 AM 47.7°F8.7°C 37.5°F3.1°C 68% 7.0 mph NW11.3 kmh NW 24.0 mph38.6 kmh 29.73 in1006.8 mb 0.00 in0.0 mm 0.00 in0.0 mm 0.01 in0.3 mm
02:20 AM 47.8°F8.8°C 37.6°F3.1°C 68% 8.0 mph WNW12.9 kmh WNW 24.0 mph38.6 kmh 29.74 in1007.1 mb 0.00 in0.0 mm 0.00 in0.0 mm 0.01 in0.3 mm
02:25 AM 47.8°F8.8°C 37.6°F3.1°C 68% 13.0 mph W20.9 kmh W 24.0 mph38.6 kmh 29.74 in1007.1 mb 0.00 in0.0 mm 0.00 in0.0 mm 0.01 in0.3 mm
02:30 AM 47.9°F8.8°C 37.7°F3.2°C 68% 5.0 mph NNW8.0 kmh NNW 19.0 mph30.6 kmh 29.74 in1007.1 mb 0.00 in0.0 mm 0.00 in0.0 mm 0.01 in0.3 mm
02:35 AM 47.9°F8.8°C 37.7°F3.2°C 68% 4.0 mph NW6.4 kmh NW 19.0 mph30.6 kmh 29.73 in1006.8 mb 0.00 in0.0 mm 0.00 in0.0 mm 0.01 in0.3 mm
02:40 AM 47.9°F8.8°C 37.3°F2.9°C 67% 11.0 mph W17.7 kmh W 14.0 mph22.5 kmh 29.74 in1007.1 mb 0.00 in0.0 mm 0.00 in0.0 mm 0.01 in0.3 mm
02:45 AM 47.9°F8.8°C 37.3°F2.9°C 67% 3.0 mph NNW4.8 kmh NNW 16.0 mph25.7 kmh 29.74 in1007.1 mb 0.00 in0.0 mm 0.00 in0.0 mm 0.01 in0.3 mm
02:50 AM 48.0°F8.9°C 37.8°F3.2°C 68% 4.0 mph WNW6.4 kmh WNW 16.0 mph25.7 kmh 29.74 in1007.1 mb 0.00 in0.0 mm 0.00 in0.0 mm 0.01 in0.3 mm
02:55 AM 48.0°F8.9°C 37.4°F3.0°C 67% 2.0 mph W3.2 kmh W 16.0 mph25.7 kmh 29.74 in1007.1 mb 0.00 in0.0 mm 0.00 in0.0 mm 0.01 in0.3 mm
03:00 AM 48.0°F8.9°C 37.4°F3.0°C 67% 5.0 mph NW8.0 kmh NW 16.0 mph25.7 kmh 29.74 in1007.1 mb 0.00 in0.0 mm 0.00 in0.0 mm 0.01 in0.3 mm
03:05 AM 48.0°F8.9°C 37.4°F3.0°C 67% 15.0 mph WNW24.1 kmh WNW 16.0 mph25.7 kmh 29.74 in1007.1 mb 0.00 in0.0 mm 0.00 in0.0 mm 0.01 in0.3 mm
03:10 AM 48.1°F8.9°C 37.5°F3.1°C 67% 6.0 mph WNW9.7 kmh WNW 16.0 mph25.7 kmh 29.74 in1007.1 mb 0.00 in0.0 mm 0.00 in0.0 mm 0.01 in0.3 mm
03:15 AM 48.1°F8.9°C 37.5°F3.1°C 67% 4.0 mph NW6.4 kmh NW 16.0 mph25.7 kmh 29.74 in1007.1 mb 0.00 in0.0 mm 0.00 in0.0 mm 0.01 in0.3 mm
03:20 AM 48.1°F8.9°C 37.5°F3.1°C 67% 10.0 mph WNW16.1 kmh WNW 16.0 mph25.7 kmh 29.74 in1007.1 mb 0.00 in0.0 mm 0.00 in0.0 mm 0.01 in0.3 mm
03:25 AM 48.1°F8.9°C 37.5°F3.1°C 67% 6.0 mph NW9.7 kmh NW 15.0 mph24.1 kmh 29.74 in1007.1 mb 0.00 in0.0 mm 0.00 in0.0 mm 0.01 in0.3 mm
03:30 AM 48.0°F8.9°C 37.4°F3.0°C 67% 11.0 mph WNW17.7 kmh WNW 15.0 mph24.1 kmh 29.74 in1007.1 mb 0.00 in0.0 mm 0.00 in0.0 mm 0.01 in0.3 mm
03:35 AM 48.0°F8.9°C 37.4°F3.0°C 67% 7.0 mph WNW11.3 kmh WNW 17.0 mph27.4 kmh 29.73 in1006.8 mb 0.00 in0.0 mm 0.00 in0.0 mm 0.01 in0.3 mm
03:40 AM 48.0°F8.9°C 37.4°F3.0°C 67% 3.0 mph NW4.8 kmh NW 17.0 mph27.4 kmh 29.73 in1006.8 mb 0.00 in0.0 mm 0.00 in0.0 mm 0.01 in0.3 mm
03:45 AM 48.1°F8.9°C 37.9°F3.3°C 68% 2.0 mph NW3.2 kmh NW 17.0 mph27.4 kmh 29.73 in1006.8 mb 0.00 in0.0 mm 0.00 in0.0 mm 0.01 in0.3 mm
03:50 AM 48.1°F8.9°C 37.9°F3.3°C 68% 5.0 mph NNW8.0 kmh NNW 20.0 mph32.2 kmh 29.73 in1006.8 mb 0.00 in0.0 mm 0.00 in0.0 mm 0.01 in0.3 mm
03:55 AM 48.1°F8.9°C 37.9°F3.3°C 68% 3.0 mph NW4.8 kmh NW 20.0 mph32.2 kmh 29.74 in1007.1 mb 0.00 in0.0 mm 0.00 in0.0 mm 0.01 in0.3 mm
04:00 AM 48.0°F8.9°C 37.8°F3.2°C 68% 9.0 mph W14.5 kmh W 20.0 mph32.2 kmh 29.74 in1007.1 mb 0.00 in0.0 mm 0.00 in0.0 mm 0.01 in0.3 mm
04:05 AM 48.1°F8.9°C 37.5°F3.1°C 67% 11.0 mph W17.7 kmh W 22.0 mph35.4 kmh 29.74 in1007.1 mb 0.00 in0.0 mm 0.00 in0.0 mm 0.01 in0.3 mm
04:10 AM 48.1°F8.9°C 37.5°F3.1°C 67% 5.0 mph W8.0 kmh W 22.0 mph35.4 kmh 29.74 in1007.1 mb 0.00 in0.0 mm 0.00 in0.0 mm 0.01 in0.3 mm
04:15 AM 48.2°F9.0°C 37.6°F3.1°C 67% 3.0 mph WNW4.8 kmh WNW 22.0 mph35.4 kmh 29.74 in1007.1 mb 0.00 in0.0 mm 0.00 in0.0 mm 0.01 in0.3 mm
04:20 AM 48.2°F9.0°C 37.6°F3.1°C 67% 6.0 mph WNW9.7 kmh WNW 22.0 mph35.4 kmh 29.74 in1007.1 mb 0.00 in0.0 mm 0.00 in0.0 mm 0.01 in0.3 mm
04:25 AM 48.1°F8.9°C 37.5°F3.1°C 67% 6.0 mph W9.7 kmh W 16.0 mph25.7 kmh 29.74 in1007.1 mb 0.00 in0.0 mm 0.00 in0.0 mm 0.01 in0.3 mm
04:30 AM 48.1°F8.9°C 37.9°F3.3°C 68% 9.0 mph SW14.5 kmh SW 16.0 mph25.7 kmh 29.74 in1007.1 mb 0.00 in0.0 mm 0.00 in0.0 mm 0.01 in0.3 mm
04:35 AM 48.1°F8.9°C 37.9°F3.3°C 68% 5.0 mph NW8.0 kmh NW 16.0 mph25.7 kmh 29.74 in1007.1 mb 0.00 in0.0 mm 0.00 in0.0 mm 0.01 in0.3 mm
04:40 AM 48.0°F8.9°C 37.8°F3.2°C 68% 9.0 mph WNW14.5 kmh WNW 16.0 mph25.7 kmh 29.74 in1007.1 mb 0.00 in0.0 mm 0.00 in0.0 mm 0.01 in0.3 mm
04:45 AM 48.0°F8.9°C 37.8°F3.2°C 68% 6.0 mph NW9.7 kmh NW 15.0 mph24.1 kmh 29.74 in1007.1 mb 0.00 in0.0 mm 0.00 in0.0 mm 0.01 in0.3 mm
04:50 AM 48.0°F8.9°C 37.4°F3.0°C 67% 7.0 mph WNW11.3 kmh WNW 17.0 mph27.4 kmh 29.75 in1007.5 mb 0.00 in0.0 mm 0.00 in0.0 mm 0.01 in0.3 mm
04:55 AM 47.9°F8.8°C 36.9°F2.7°C 66% 4.0 mph NNW6.4 kmh NNW 17.0 mph27.4 kmh 29.75 in1007.5 mb 0.00 in0.0 mm 0.00 in0.0 mm 0.01 in0.3 mm
05:00 AM 47.9°F8.8°C 37.3°F2.9°C 67% 4.0 mph W6.4 kmh W 17.0 mph27.4 kmh 29.75 in1007.5 mb 0.00 in0.0 mm 0.00 in0.0 mm 0.01 in0.3 mm
05:05 AM 47.9°F8.8°C 37.3°F2.9°C 67% 7.0 mph WNW11.3 kmh WNW 17.0 mph27.4 kmh 29.75 in1007.5 mb 0.00 in0.0 mm 0.00 in0.0 mm 0.01 in0.3 mm
05:10 AM 47.9°F8.8°C 37.7°F3.2°C 68% 6.0 mph NW9.7 kmh NW 14.0 mph22.5 kmh 29.75 in1007.5 mb 0.00 in0.0 mm 0.00 in0.0 mm 0.01 in0.3 mm
05:15 AM 47.8°F8.8°C 37.6°F3.1°C 68% 2.0 mph WNW3.2 kmh WNW 14.0 mph22.5 kmh 29.75 in1007.5 mb 0.00 in0.0 mm 0.00 in0.0 mm 0.01 in0.3 mm
05:20 AM 47.8°F8.8°C 37.6°F3.1°C 68% 3.0 mph WNW4.8 kmh WNW 14.0 mph22.5 kmh 29.75 in1007.5 mb 0.00 in0.0 mm 0.00 in0.0 mm 0.01 in0.3 mm
05:25 AM 47.8°F8.8°C 38.0°F3.3°C 69% 6.0 mph WNW9.7 kmh WNW 14.0 mph22.5 kmh 29.75 in1007.5 mb 0.00 in0.0 mm 0.00 in0.0 mm 0.01 in0.3 mm
05:30 AM 47.8°F8.8°C 38.3°F3.5°C 70% 6.0 mph WNW9.7 kmh WNW 17.0 mph27.4 kmh 29.75 in1007.5 mb 0.00 in0.0 mm 0.00 in0.0 mm 0.01 in0.3 mm
05:35 AM 47.8°F8.8°C 38.0°F3.3°C 69% 3.0 mph W4.8 kmh W 17.0 mph27.4 kmh 29.76 in1007.8 mb 0.00 in0.0 mm 0.00 in0.0 mm 0.01 in0.3 mm
05:40 AM 47.8°F8.8°C 38.0°F3.3°C 69% 8.0 mph W12.9 kmh W 17.0 mph27.4 kmh 29.75 in1007.5 mb 0.00 in0.0 mm 0.00 in0.0 mm 0.01 in0.3 mm
05:45 AM 47.8°F8.8°C 38.0°F3.3°C 69% 4.0 mph NW6.4 kmh NW 18.0 mph29.0 kmh 29.76 in1007.8 mb 0.00 in0.0 mm 0.00 in0.0 mm 0.01 in0.3 mm
05:50 AM 47.9°F8.8°C 38.0°F3.3°C 69% 5.0 mph NW8.0 kmh NW 20.0 mph32.2 kmh 29.76 in1007.8 mb 0.00 in0.0 mm 0.00 in0.0 mm 0.01 in0.3 mm
05:55 AM 47.9°F8.8°C 38.0°F3.3°C 69% 12.0 mph WSW19.3 kmh WSW 20.0 mph32.2 kmh 29.76 in1007.8 mb 0.00 in0.0 mm 0.00 in0.0 mm 0.01 in0.3 mm
06:00 AM 47.9°F8.8°C 38.0°F3.3°C 69% 4.0 mph W6.4 kmh W 20.0 mph32.2 kmh 29.76 in1007.8 mb 0.00 in0.0 mm 0.00 in0.0 mm 0.01 in0.3 mm
06:05 AM 47.9°F8.8°C 38.0°F3.3°C 69% 5.0 mph WNW8.0 kmh WNW 20.0 mph32.2 kmh 29.76 in1007.8 mb 0.00 in0.0 mm 0.00 in0.0 mm 0.01 in0.3 mm
06:10 AM 47.9°F8.8°C 38.0°F3.3°C 69% 6.0 mph WNW9.7 kmh WNW 15.0 mph24.1 kmh 29.77 in1008.1 mb 0.00 in0.0 mm 0.00 in0.0 mm 0.01 in0.3 mm
06:15 AM 47.8°F8.8°C 38.0°F3.3°C 69% 6.0 mph WNW9.7 kmh WNW 18.0 mph29.0 kmh 29.77 in1008.1 mb 0.00 in0.0 mm 0.00 in0.0 mm 0.01 in0.3 mm
06:20 AM 47.7°F8.7°C 37.5°F3.1°C 68% 7.0 mph NW11.3 kmh NW 18.0 mph29.0 kmh 29.77 in1008.1 mb 0.00 in0.0 mm 0.00 in0.0 mm 0.01 in0.3 mm
06:25 AM 47.8°F8.8°C 37.6°F3.1°C 68% 3.0 mph N4.8 kmh N 18.0 mph29.0 kmh 29.77 in1008.1 mb 0.00 in0.0 mm 0.00 in0.0 mm 0.01 in0.3 mm
06:30 AM 47.8°F8.8°C 37.6°F3.1°C 68% 5.0 mph W8.0 kmh W 23.0 mph37.0 kmh 29.77 in1008.1 mb 0.00 in0.0 mm 0.00 in0.0 mm 0.01 in0.3 mm
06:35 AM 47.8°F8.8°C 37.6°F3.1°C 68% 8.0 mph WNW12.9 kmh WNW 23.0 mph37.0 kmh 29.77 in1008.1 mb 0.00 in0.0 mm 0.00 in0.0 mm 0.01 in0.3 mm
06:40 AM 47.7°F8.7°C 37.5°F3.1°C 68% 8.0 mph WNW12.9 kmh WNW 23.0 mph37.0 kmh 29.78 in1008.5 mb 0.00 in0.0 mm 0.00 in0.0 mm 0.01 in0.3 mm
06:45 AM 47.7°F8.7°C 37.1°F2.8°C 67% 5.0 mph WNW8.0 kmh WNW 23.0 mph37.0 kmh 29.78 in1008.5 mb 0.00 in0.0 mm 0.00 in0.0 mm 0.01 in0.3 mm
06:50 AM 47.7°F8.7°C 37.5°F3.1°C 68% 4.0 mph WNW6.4 kmh WNW 17.0 mph27.4 kmh 29.78 in1008.5 mb 0.00 in0.0 mm 0.00 in0.0 mm 0.01 in0.3 mm
06:55 AM 47.8°F8.8°C 37.6°F3.1°C 68% 7.0 mph WNW11.3 kmh WNW 17.0 mph27.4 kmh 29.78 in1008.5 mb 0.00 in0.0 mm 0.00 in0.0 mm 0.01 in0.3 mm
07:00 AM 47.7°F8.7°C 37.5°F3.1°C 68% 6.0 mph W9.7 kmh W 17.0 mph27.4 kmh 29.78 in1008.5 mb 0.00 in0.0 mm 0.00 in0.0 mm 0.01 in0.3 mm
07:05 AM 47.7°F8.7°C 37.1°F2.8°C 67% 6.0 mph W9.7 kmh W 18.0 mph29.0 kmh 29.78 in1008.5 mb 0.00 in0.0 mm 0.00 in0.0 mm 0.01 in0.3 mm
07:10 AM 47.6°F8.7°C 37.0°F2.8°C 67% 4.0 mph WNW6.4 kmh WNW 18.0 mph29.0 kmh 29.78 in1008.5 mb 0.00 in0.0 mm 0.00 in0.0 mm 0.01 in0.3 mm
07:15 AM 47.6°F8.7°C 37.4°F3.0°C 68% 5.0 mph WSW8.0 kmh WSW 18.0 mph29.0 kmh 29.79 in1008.8 mb 0.00 in0.0 mm 0.00 in0.0 mm 0.01 in0.3 mm
07:20 AM 47.5°F8.6°C 36.9°F2.7°C 67% 4.0 mph NW6.4 kmh NW 18.0 mph29.0 kmh 29.78 in1008.5 mb 0.00 in0.0 mm 0.00 in0.0 mm 0.01 in0.3 mm
07:25 AM 47.4°F8.6°C 36.8°F2.7°C 67% 4.0 mph W6.4 kmh W 17.0 mph27.4 kmh 29.79 in1008.8 mb 0.00 in0.0 mm 0.00 in0.0 mm 0.01 in0.3 mm
07:30 AM 47.3°F8.5°C 36.3°F2.4°C 66% 8.0 mph W12.9 kmh W 20.0 mph32.2 kmh 29.79 in1008.8 mb 0.00 in0.0 mm 0.00 in0.0 mm 0.01 in0.3 mm
07:35 AM 47.2°F8.4°C 36.2°F2.3°C 66% 5.0 mph WNW8.0 kmh WNW 20.0 mph32.2 kmh 29.79 in1008.8 mb 0.00 in0.0 mm 0.00 in0.0 mm 0.01 in0.3 mm
07:40 AM 47.1°F8.4°C 36.1°F2.3°C 66% 2.0 mph NW3.2 kmh NW 20.0 mph32.2 kmh 29.79 in1008.8 mb 0.00 in0.0 mm 0.00 in0.0 mm 0.01 in0.3 mm
07:45 AM 47.1°F8.4°C 36.1°F2.3°C 66% 6.0 mph W9.7 kmh W 20.0 mph32.2 kmh 29.80 in1009.1 mb 0.00 in0.0 mm 0.00 in0.0 mm 0.01 in0.3 mm
07:50 AM 47.1°F8.4°C 36.5°F2.5°C 67% 7.0 mph W11.3 kmh W 14.0 mph22.5 kmh 29.80 in1009.1 mb 0.00 in0.0 mm 0.00 in0.0 mm 0.01 in0.3 mm
07:55 AM 47.1°F8.4°C 36.5°F2.5°C 67% 2.0 mph NNW3.2 kmh NNW 14.0 mph22.5 kmh 29.80 in1009.1 mb 0.00 in0.0 mm 0.00 in0.0 mm 0.01 in0.3 mm
08:00 AM 47.1°F8.4°C 36.1°F2.3°C 66% 5.0 mph WSW8.0 kmh WSW 13.0 mph20.9 kmh 29.81 in1009.5 mb 0.00 in0.0 mm 0.00 in0.0 mm 0.01 in0.3 mm
08:05 AM 47.0°F8.3°C 36.0°F2.2°C 66% 6.0 mph WNW9.7 kmh WNW 15.0 mph24.1 kmh 29.81 in1009.5 mb 0.00 in0.0 mm 0.00 in0.0 mm 0.01 in0.3 mm
08:10 AM 46.9°F8.3°C 35.9°F2.2°C 66% 6.0 mph W9.7 kmh W 15.0 mph24.1 kmh 29.81 in1009.5 mb 0.00 in0.0 mm 0.00 in0.0 mm 0.01 in0.3 mm
08:15 AM 46.8°F8.2°C 36.2°F2.3°C 67% 6.0 mph W9.7 kmh W 15.0 mph24.1 kmh 29.80 in1009.1 mb 0.00 in0.0 mm 0.00 in0.0 mm 0.01 in0.3 mm
08:20 AM 46.8°F8.2°C 36.2°F2.3°C 67% 12.0 mph WNW19.3 kmh WNW 15.0 mph24.1 kmh 29.80 in1009.1 mb 0.00 in0.0 mm 0.00 in0.0 mm 0.01 in0.3 mm
08:25 AM 46.8°F8.2°C 36.2°F2.3°C 67% 4.0 mph NNW6.4 kmh NNW 14.0 mph22.5 kmh 29.80 in1009.1 mb 0.00 in0.0 mm 0.00 in0.0 mm 0.01 in0.3 mm
08:30 AM 46.8°F8.2°C 36.6°F2.6°C 68% 1.0 mph NW1.6 kmh NW 14.0 mph22.5 kmh 29.80 in1009.1 mb 0.00 in0.0 mm 0.00 in0.0 mm 0.01 in0.3 mm
08:35 AM 46.8°F8.2°C 36.6°F2.6°C 68% 4.0 mph W6.4 kmh W 14.0 mph22.5 kmh 29.81 in1009.5 mb 0.00 in0.0 mm 0.00 in0.0 mm 0.01 in0.3 mm
08:40 AM 46.8°F8.2°C 36.6°F2.6°C 68% 5.0 mph NW8.0 kmh NW 14.0 mph22.5 kmh 29.81 in1009.5 mb 0.00 in0.0 mm 0.00 in0.0 mm 0.01 in0.3 mm
08:45 AM 46.7°F8.2°C 36.5°F2.5°C 68% 3.0 mph WNW4.8 kmh WNW 10.0 mph16.1 kmh 29.81 in1009.5 mb 0.00 in0.0 mm 0.00 in0.0 mm 0.01 in0.3 mm
08:50 AM 46.8°F8.2°C 36.6°F2.6°C 68% 6.0 mph NW9.7 kmh NW 10.0 mph16.1 kmh 29.82 in1009.8 mb 0.00 in0.0 mm 0.00 in0.0 mm 0.01 in0.3 mm
08:55 AM 46.9°F8.3°C 36.7°F2.6°C 68% 7.0 mph W11.3 kmh W 18.0 mph29.0 kmh 29.82 in1009.8 mb 0.00 in0.0 mm 0.00 in0.0 mm 0.01 in0.3 mm
09:00 AM 47.0°F8.3°C 36.8°F2.7°C 68% 3.0 mph N4.8 kmh N 18.0 mph29.0 kmh 29.82 in1009.8 mb 0.00 in0.0 mm 0.00 in0.0 mm 0.01 in0.3 mm
09:05 AM 47.0°F8.3°C 36.8°F2.7°C 68% 3.0 mph NW4.8 kmh NW 18.0 mph29.0 kmh 29.82 in1009.8 mb 0.00 in0.0 mm 0.00 in0.0 mm 0.01 in0.3 mm
09:10 AM 46.9°F8.3°C 36.3°F2.4°C 67% 4.0 mph NW6.4 kmh NW 18.0 mph29.0 kmh 29.82 in1009.8 mb 0.00 in0.0 mm 0.00 in0.0 mm 0.01 in0.3 mm
09:15 AM 46.8°F8.2°C 36.2°F2.3°C 67% 5.0 mph N8.0 kmh N 12.0 mph19.3 kmh 29.82 in1009.8 mb 0.00 in0.0 mm 0.00 in0.0 mm 0.01 in0.3 mm
09:20 AM 46.9°F8.3°C 36.3°F2.4°C 67% 3.0 mph WNW4.8 kmh WNW 12.0 mph19.3 kmh 29.82 in1009.8 mb 0.00 in0.0 mm 0.00 in0.0 mm 0.01 in0.3 mm
09:25 AM 47.0°F8.3°C 36.4°F2.4°C 67% 6.0 mph W9.7 kmh W 13.0 mph20.9 kmh 29.83 in1010.2 mb 0.00 in0.0 mm 0.00 in0.0 mm 0.01 in0.3 mm
09:30 AM 47.1°F8.4°C 36.9°F2.7°C 68% 7.0 mph WNW11.3 kmh WNW 13.0 mph20.9 kmh 29.83 in1010.2 mb 0.00 in0.0 mm 0.00 in0.0 mm 0.01 in0.3 mm
09:35 AM 47.0°F8.3°C 36.8°F2.7°C 68% 4.0 mph WNW6.4 kmh WNW 13.0 mph20.9 kmh 29.83 in1010.2 mb 0.00 in0.0 mm 0.00 in0.0 mm 0.01 in0.3 mm
09:40 AM 47.0°F8.3°C 36.8°F2.7°C 68% 6.0 mph NW9.7 kmh NW 16.0 mph25.7 kmh 29.83 in1010.2 mb 0.00 in0.0 mm 0.00 in0.0 mm 0.01 in0.3 mm
09:45 AM 47.0°F8.3°C 36.4°F2.4°C 67% 5.0 mph WSW8.0 kmh WSW 16.0 mph25.7 kmh 29.83 in1010.2 mb 0.00 in0.0 mm 0.00 in0.0 mm 0.01 in0.3 mm
09:50 AM 47.0°F8.3°C 36.4°F2.4°C 67% 10.0 mph WNW16.1 kmh WNW 16.0 mph25.7 kmh 29.83 in1010.2 mb 0.00 in0.0 mm 0.00 in0.0 mm 0.01 in0.3 mm
09:55 AM 47.1°F8.4°C 36.5°F2.5°C 67% 9.0 mph WNW14.5 kmh WNW 16.0 mph25.7 kmh 29.83 in1010.2 mb 0.00 in0.0 mm 0.00 in0.0 mm 0.01 in0.3 mm
10:00 AM 47.2°F8.4°C 36.6°F2.6°C 67% 8.0 mph WNW12.9 kmh WNW 14.0 mph22.5 kmh 29.83 in1010.2 mb 0.00 in0.0 mm 0.00 in0.0 mm 0.01 in0.3 mm
10:05 AM 47.3°F8.5°C 36.7°F2.6°C 67% 7.0 mph W11.3 kmh W 17.0 mph27.4 kmh 29.84 in1010.5 mb 0.00 in0.0 mm 0.00 in0.0 mm 0.01 in0.3 mm
10:10 AM 47.3°F8.5°C 36.7°F2.6°C 67% 8.0 mph WNW12.9 kmh WNW 17.0 mph27.4 kmh 29.84 in1010.5 mb 0.00 in0.0 mm 0.00 in0.0 mm 0.01 in0.3 mm
10:15 AM 47.3°F8.5°C 36.7°F2.6°C 67% 11.0 mph NW17.7 kmh NW 17.0 mph27.4 kmh 29.84 in1010.5 mb 0.00 in0.0 mm 0.00 in0.0 mm 0.01 in0.3 mm
10:20 AM 47.3°F8.5°C 36.7°F2.6°C 67% 4.0 mph NW6.4 kmh NW 17.0 mph27.4 kmh 29.84 in1010.5 mb 0.00 in0.0 mm 0.00 in0.0 mm 0.01 in0.3 mm
10:25 AM 47.3°F8.5°C 36.7°F2.6°C 67% 7.0 mph WNW11.3 kmh WNW 15.0 mph24.1 kmh 29.84 in1010.5 mb 0.00 in0.0 mm 0.00 in0.0 mm 0.01 in0.3 mm
10:30 AM 47.3°F8.5°C 36.7°F2.6°C 67% 6.0 mph WSW9.7 kmh WSW 15.0 mph24.1 kmh 29.84 in1010.5 mb 0.00 in0.0 mm 0.00 in0.0 mm 0.01 in0.3 mm
10:35 AM 47.3°F8.5°C 36.3°F2.4°C 66% 3.0 mph WNW4.8 kmh WNW 13.0 mph20.9 kmh 29.84 in1010.5 mb 0.00 in0.0 mm 0.00 in0.0 mm 0.01 in0.3 mm
10:40 AM 47.4°F8.6°C 36.8°F2.7°C 67% 3.0 mph N4.8 kmh N 13.0 mph20.9 kmh 29.85 in1010.8 mb 0.00 in0.0 mm 0.00 in0.0 mm 0.01 in0.3 mm
10:45 AM 47.4°F8.6°C 36.8°F2.7°C 67% 1.0 mph WNW1.6 kmh WNW 11.0 mph17.7 kmh 29.85 in1010.8 mb 0.00 in0.0 mm 0.00 in0.0 mm 0.01 in0.3 mm
10:50 AM 47.3°F8.5°C 36.7°F2.6°C 67% 10.0 mph WNW16.1 kmh WNW 14.0 mph22.5 kmh 29.85 in1010.8 mb 0.00 in0.0 mm 0.00 in0.0 mm 0.01 in0.3 mm
10:55 AM 47.2°F8.4°C 36.2°F2.3°C 66% 6.0 mph W9.7 kmh W 14.0 mph22.5 kmh 29.85 in1010.8 mb 0.00 in0.0 mm 0.00 in0.0 mm 0.01 in0.3 mm
11:00 AM 47.1°F8.4°C 36.5°F2.5°C 67% 2.0 mph WNW3.2 kmh WNW 14.0 mph22.5 kmh 29.85 in1010.8 mb 0.00 in0.0 mm 0.00 in0.0 mm 0.01 in0.3 mm
11:05 AM 47.2°F8.4°C 36.6°F2.6°C 67% 6.0 mph W9.7 kmh W 14.0 mph22.5 kmh 29.86 in1011.2 mb 0.00 in0.0 mm 0.00 in0.0 mm 0.01 in0.3 mm
11:10 AM 47.2°F8.4°C 36.6°F2.6°C 67% 6.0 mph WNW9.7 kmh WNW 13.0 mph20.9 kmh 29.85 in1010.8 mb 0.00 in0.0 mm 0.00 in0.0 mm 0.01 in0.3 mm
12:01 PM 48.6°F9.2°C 37.5°F3.1°C 66% 3.0 mph NW4.8 kmh NW 6.0 mph9.7 kmh 29.87 in1011.5 mb 0.00 in0.0 mm 0.00 in0.0 mm 0.01 in0.3 mm
12:06 PM 48.6°F9.2°C 37.1°F2.8°C 65% 3.0 mph NNW4.8 kmh NNW 10.0 mph16.1 kmh 29.86 in1011.2 mb 0.00 in0.0 mm 0.00 in0.0 mm 0.01 in0.3 mm
12:11 PM 48.6°F9.2°C 37.9°F3.3°C 67% 7.0 mph W11.3 kmh W 11.0 mph17.7 kmh 29.86 in1011.2 mb 0.00 in0.0 mm 0.00 in0.0 mm 0.01 in0.3 mm
12:16 PM 48.6°F9.2°C 37.5°F3.1°C 66% 2.0 mph WNW3.2 kmh WNW 12.0 mph19.3 kmh 29.86 in1011.2 mb 0.00 in0.0 mm 0.00 in0.0 mm 0.01 in0.3 mm
12:21 PM 48.7°F9.3°C 37.6°F3.1°C 66% 4.0 mph NW6.4 kmh NW 12.0 mph19.3 kmh 29.86 in1011.2 mb 0.00 in0.0 mm 0.00 in0.0 mm 0.01 in0.3 mm
12:26 PM 48.7°F9.3°C 38.0°F3.3°C 67% 4.0 mph WNW6.4 kmh WNW 12.0 mph19.3 kmh 29.86 in1011.2 mb 0.00 in0.0 mm 0.00 in0.0 mm 0.01 in0.3 mm
12:31 PM 48.8°F9.3°C 37.7°F3.2°C 66% 6.0 mph W9.7 kmh W 12.0 mph19.3 kmh 29.86 in1011.2 mb 0.00 in0.0 mm 0.00 in0.0 mm 0.01 in0.3 mm
12:36 PM 48.7°F9.3°C 37.6°F3.1°C 66% 5.0 mph WNW8.0 kmh WNW 16.0 mph25.7 kmh 29.86 in1011.2 mb 0.00 in0.0 mm 0.00 in0.0 mm 0.01 in0.3 mm
12:41 PM 48.8°F9.3°C 38.1°F3.4°C 67% 3.0 mph W4.8 kmh W 16.0 mph25.7 kmh 29.86 in1011.2 mb 0.00 in0.0 mm 0.00 in0.0 mm 0.01 in0.3 mm
12:46 PM 49.0°F9.4°C 38.3°F3.5°C 67% 4.0 mph WSW6.4 kmh WSW 16.0 mph25.7 kmh 29.86 in1011.2 mb 0.00 in0.0 mm 0.00 in0.0 mm 0.01 in0.3 mm
12:52 PM 49.6°F9.8°C 38.5°F3.6°C 66% 7.0 mph WSW11.3 kmh WSW 10.0 mph16.1 kmh 29.85 in1010.8 mb 0.00 in0.0 mm 0.00 in0.0 mm 0.01 in0.3 mm
12:57 PM 49.7°F9.8°C 38.2°F3.4°C 65% 3.0 mph NW4.8 kmh NW 10.0 mph16.1 kmh 29.86 in1011.2 mb 0.00 in0.0 mm 0.00 in0.0 mm 0.01 in0.3 mm
01:02 PM 49.8°F9.9°C 38.3°F3.5°C 65% 7.0 mph NW11.3 kmh NW 14.0 mph22.5 kmh 29.86 in1011.2 mb 0.00 in0.0 mm 0.00 in0.0 mm 0.01 in0.3 mm
01:07 PM 50.0°F10.0°C 38.1°F3.4°C 64% 4.0 mph NW6.4 kmh NW 14.0 mph22.5 kmh 29.86 in1011.2 mb 0.00 in0.0 mm 0.00 in0.0 mm 0.01 in0.3 mm
01:12 PM 49.7°F9.8°C 37.4°F3.0°C 63% 8.0 mph WSW12.9 kmh WSW 18.0 mph29.0 kmh 29.86 in1011.2 mb 0.00 in0.0 mm 0.00 in0.0 mm 0.01 in0.3 mm
01:17 PM 49.7°F9.8°C 37.4°F3.0°C 63% 3.0 mph NW4.8 kmh NW 18.0 mph29.0 kmh 29.86 in1011.2 mb 0.00 in0.0 mm 0.00 in0.0 mm 0.01 in0.3 mm
01:22 PM 50.0°F10.0°C 37.7°F3.2°C 63% 4.0 mph NW6.4 kmh NW 18.0 mph29.0 kmh 29.86 in1011.2 mb 0.00 in0.0 mm 0.00 in0.0 mm 0.01 in0.3 mm
01:27 PM 49.9°F9.9°C 37.6°F3.1°C 63% 4.0 mph WNW6.4 kmh WNW 18.0 mph29.0 kmh 29.86 in1011.2 mb 0.00 in0.0 mm 0.00 in0.0 mm 0.01 in0.3 mm
01:32 PM 49.6°F9.8°C 37.7°F3.2°C 64% 3.0 mph NW4.8 kmh NW 17.0 mph27.4 kmh 29.86 in1011.2 mb 0.00 in0.0 mm 0.00 in0.0 mm 0.01 in0.3 mm
01:37 PM 49.5°F9.7°C 38.0°F3.3°C 65% 10.0 mph W16.1 kmh W 17.0 mph27.4 kmh 29.86 in1011.2 mb 0.00 in0.0 mm 0.00 in0.0 mm 0.01 in0.3 mm
01:42 PM 49.7°F9.8°C 38.6°F3.7°C 66% 3.0 mph NW4.8 kmh NW 17.0 mph27.4 kmh 29.86 in1011.2 mb 0.00 in0.0 mm 0.00 in0.0 mm 0.01 in0.3 mm
01:47 PM 49.6°F9.8°C 38.1°F3.4°C 65% 6.0 mph W9.7 kmh W 17.0 mph27.4 kmh 29.86 in1011.2 mb 0.00 in0.0 mm 0.00 in0.0 mm 0.01 in0.3 mm
01:52 PM 49.7°F9.8°C 38.2°F3.4°C 65% 5.0 mph W8.0 kmh W 16.0 mph25.7 kmh 29.86 in1011.2 mb 0.00 in0.0 mm 0.00 in0.0 mm 0.01 in0.3 mm
01:57 PM 49.8°F9.9°C 38.3°F3.5°C 65% 3.0 mph WNW4.8 kmh WNW 16.0 mph25.7 kmh 29.86 in1011.2 mb 0.00 in0.0 mm 0.00 in0.0 mm 0.01 in0.3 mm
02:02 PM 49.7°F9.8°C 38.2°F3.4°C 65% 6.0 mph WSW9.7 kmh WSW 14.0 mph22.5 kmh 29.86 in1011.2 mb 0.00 in0.0 mm 0.00 in0.0 mm 0.01 in0.3 mm
02:07 PM 50.8°F10.4°C 39.6°F4.2°C 66% 5.0 mph WNW8.0 kmh WNW 14.0 mph22.5 kmh 29.86 in1011.2 mb 0.00 in0.0 mm 0.00 in0.0 mm 0.01 in0.3 mm
02:12 PM 50.8°F10.4°C 38.8°F3.8°C 64% 6.0 mph WNW9.7 kmh WNW 12.0 mph19.3 kmh 29.86 in1011.2 mb 0.00 in0.0 mm 0.00 in0.0 mm 0.01 in0.3 mm
02:17 PM 50.5°F10.3°C 38.9°F3.8°C 65% 6.0 mph WSW9.7 kmh WSW 12.0 mph19.3 kmh 29.86 in1011.2 mb 0.00 in0.0 mm 0.00 in0.0 mm 0.01 in0.3 mm
02:22 PM 50.4°F10.2°C 38.4°F3.6°C 64% 4.0 mph WSW6.4 kmh WSW 10.0 mph16.1 kmh 29.87 in1011.5 mb 0.00 in0.0 mm 0.00 in0.0 mm 0.01 in0.3 mm
02:27 PM 50.3°F10.2°C 38.3°F3.5°C 64% 3.0 mph WNW4.8 kmh WNW 12.0 mph19.3 kmh 29.86 in1011.2 mb 0.00 in0.0 mm 0.00 in0.0 mm 0.01 in0.3 mm
02:32 PM 50.4°F10.2°C 38.4°F3.6°C 64% 3.0 mph NW4.8 kmh NW 13.0 mph20.9 kmh 29.87 in1011.5 mb 0.00 in0.0 mm 0.00 in0.0 mm 0.01 in0.3 mm
02:37 PM 50.5°F10.3°C 38.5°F3.6°C 64% 4.0 mph NNW6.4 kmh NNW 13.0 mph20.9 kmh 29.86 in1011.2 mb 0.00 in0.0 mm 0.00 in0.0 mm 0.01 in0.3 mm
02:42 PM 50.5°F10.3°C 38.5°F3.6°C 64% 2.0 mph WSW3.2 kmh WSW 13.0 mph20.9 kmh 29.86 in1011.2 mb 0.00 in0.0 mm 0.00 in0.0 mm 0.01 in0.3 mm
02:47 PM 50.6°F10.3°C 38.2°F3.4°C 63% 5.0 mph WNW8.0 kmh WNW 14.0 mph22.5 kmh 29.87 in1011.5 mb 0.00 in0.0 mm 0.00 in0.0 mm 0.01 in0.3 mm
02:52 PM 50.4°F10.2°C 38.4°F3.6°C 64% 4.0 mph W6.4 kmh W 14.0 mph22.5 kmh 29.87 in1011.5 mb 0.00 in0.0 mm 0.00 in0.0 mm 0.01 in0.3 mm
02:57 PM 50.5°F10.3°C 38.1°F3.4°C 63% 6.0 mph W9.7 kmh W 14.0 mph22.5 kmh 29.86 in1011.2 mb 0.00 in0.0 mm 0.00 in0.0 mm 0.01 in0.3 mm
03:02 PM 50.5°F10.3°C 38.5°F3.6°C 64% 3.0 mph WNW4.8 kmh WNW 14.0 mph22.5 kmh 29.87 in1011.5 mb 0.00 in0.0 mm 0.00 in0.0 mm 0.01 in0.3 mm
03:07 PM 50.4°F10.2°C 38.0°F3.3°C 63% 4.0 mph W6.4 kmh W 14.0 mph22.5 kmh 29.87 in1011.5 mb 0.00 in0.0 mm 0.00 in0.0 mm 0.01 in0.3 mm
03:12 PM 50.3°F10.2°C 37.9°F3.3°C 63% 1.0 mph WNW1.6 kmh WNW 14.0 mph22.5 kmh 29.87 in1011.5 mb 0.00 in0.0 mm 0.00 in0.0 mm 0.01 in0.3 mm
03:17 PM 50.3°F10.2°C 38.3°F3.5°C 64% 8.0 mph WSW12.9 kmh WSW 14.0 mph22.5 kmh 29.87 in1011.5 mb 0.00 in0.0 mm 0.00 in0.0 mm 0.01 in0.3 mm
03:22 PM 50.4°F10.2°C 38.4°F3.6°C 64% 4.0 mph W6.4 kmh W 14.0 mph22.5 kmh 29.87 in1011.5 mb 0.00 in0.0 mm 0.00 in0.0 mm 0.01 in0.3 mm
03:27 PM 50.3°F10.2°C 38.3°F3.5°C 64% 5.0 mph NW8.0 kmh NW 11.0 mph17.7 kmh 29.87 in1011.5 mb 0.00 in0.0 mm 0.00 in0.0 mm 0.01 in0.3 mm
03:32 PM 50.2°F10.1°C 37.8°F3.2°C 63% 5.0 mph W8.0 kmh W 11.0 mph17.7 kmh 29.87 in1011.5 mb 0.00 in0.0 mm 0.00 in0.0 mm 0.01 in0.3 mm
03:37 PM 50.2°F10.1°C 37.8°F3.2°C 63% 4.0 mph WSW6.4 kmh WSW 13.0 mph20.9 kmh 29.87 in1011.5 mb 0.00 in0.0 mm 0.00 in0.0 mm 0.01 in0.3 mm
03:42 PM 50.3°F10.2°C 38.3°F3.5°C 64% 2.0 mph WNW3.2 kmh WNW 13.0 mph20.9 kmh 29.87 in1011.5 mb 0.00 in0.0 mm 0.00 in0.0 mm 0.01 in0.3 mm
03:47 PM 50.4°F10.2°C 38.0°F3.3°C 63% 4.0 mph NW6.4 kmh NW 13.0 mph20.9 kmh 29.87 in1011.5 mb 0.00 in0.0 mm 0.00 in0.0 mm 0.01 in0.3 mm
03:52 PM 50.4°F10.2°C 38.0°F3.3°C 63% 7.0 mph W11.3 kmh W 13.0 mph20.9 kmh 29.87 in1011.5 mb 0.00 in0.0 mm 0.00 in0.0 mm 0.01 in0.3 mm
03:57 PM 50.4°F10.2°C 38.0°F3.3°C 63% 2.0 mph WNW3.2 kmh WNW 12.0 mph19.3 kmh 29.88 in1011.9 mb 0.00 in0.0 mm 0.00 in0.0 mm 0.01 in0.3 mm
04:02 PM 50.6°F10.3°C 38.6°F3.7°C 64% 3.0 mph NNW4.8 kmh NNW 12.0 mph19.3 kmh 29.88 in1011.9 mb 0.00 in0.0 mm 0.00 in0.0 mm 0.01 in0.3 mm
04:07 PM 50.7°F10.4°C 37.9°F3.3°C 62% 5.0 mph WNW8.0 kmh WNW 11.0 mph17.7 kmh 29.87 in1011.5 mb 0.00 in0.0 mm 0.00 in0.0 mm 0.01 in0.3 mm
04:12 PM 50.7°F10.4°C 37.9°F3.3°C 62% 2.0 mph WNW3.2 kmh WNW 11.0 mph17.7 kmh 29.87 in1011.5 mb 0.00 in0.0 mm 0.00 in0.0 mm 0.01 in0.3 mm
04:17 PM 50.8°F10.4°C 38.0°F3.3°C 62% 4.0 mph NW6.4 kmh NW 13.0 mph20.9 kmh 29.88 in1011.9 mb 0.00 in0.0 mm 0.00 in0.0 mm 0.01 in0.3 mm
04:22 PM 50.8°F10.4°C 38.0°F3.3°C 62% 6.0 mph WNW9.7 kmh WNW 13.0 mph20.9 kmh 29.88 in1011.9 mb 0.00 in0.0 mm 0.00 in0.0 mm 0.01 in0.3 mm
04:27 PM 50.8°F10.4°C 37.6°F3.1°C 61% 4.0 mph WNW6.4 kmh WNW 15.0 mph24.1 kmh 29.88 in1011.9 mb 0.00 in0.0 mm 0.00 in0.0 mm 0.01 in0.3 mm
04:32 PM 50.7°F10.4°C 37.9°F3.3°C 62% 5.0 mph WNW8.0 kmh WNW 15.0 mph24.1 kmh 29.88 in1011.9 mb 0.00 in0.0 mm 0.00 in0.0 mm 0.01 in0.3 mm
04:37 PM 50.8°F10.4°C 38.0°F3.3°C 62% 5.0 mph WNW8.0 kmh WNW 15.0 mph24.1 kmh 29.88 in1011.9 mb 0.00 in0.0 mm 0.00 in0.0 mm 0.01 in0.3 mm
04:42 PM 50.7°F10.4°C 37.9°F3.3°C 62% 6.0 mph WNW9.7 kmh WNW 15.0 mph24.1 kmh 29.88 in1011.9 mb 0.00 in0.0 mm 0.00 in0.0 mm 0.01 in0.3 mm
04:47 PM 50.6°F10.3°C 37.4°F3.0°C 61% 3.0 mph W4.8 kmh W 10.0 mph16.1 kmh 29.88 in1011.9 mb 0.00 in0.0 mm 0.00 in0.0 mm 0.01 in0.3 mm
04:52 PM 50.6°F10.3°C 37.4°F3.0°C 61% 2.0 mph WNW3.2 kmh WNW 12.0 mph19.3 kmh 29.88 in1011.9 mb 0.00 in0.0 mm 0.00 in0.0 mm 0.01 in0.3 mm
04:57 PM 50.6°F10.3°C 37.8°F3.2°C 62% 5.0 mph W8.0 kmh W 12.0 mph19.3 kmh 29.88 in1011.9 mb 0.00 in0.0 mm 0.00 in0.0 mm 0.01 in0.3 mm
05:02 PM 50.5°F10.3°C 37.7°F3.2°C 62% 3.0 mph W4.8 kmh W 12.0 mph19.3 kmh 29.88 in1011.9 mb 0.00 in0.0 mm 0.00 in0.0 mm 0.01 in0.3 mm
05:07 PM 50.4°F10.2°C 37.6°F3.1°C 62% 3.0 mph W4.8 kmh W 12.0 mph19.3 kmh 29.88 in1011.9 mb 0.00 in0.0 mm 0.00 in0.0 mm 0.01 in0.3 mm
05:12 PM 50.4°F10.2°C 37.6°F3.1°C 62% 2.0 mph WNW3.2 kmh WNW 11.0 mph17.7 kmh 29.88 in1011.9 mb 0.00 in0.0 mm 0.00 in0.0 mm 0.01 in0.3 mm
05:17 PM 50.4°F10.2°C 37.6°F3.1°C 62% 5.0 mph W8.0 kmh W 11.0 mph17.7 kmh 29.88 in1011.9 mb 0.00 in0.0 mm 0.00 in0.0 mm 0.01 in0.3 mm
05:22 PM 50.4°F10.2°C 37.6°F3.1°C 62% 1.0 mph NW1.6 kmh NW 9.0 mph14.5 kmh 29.88 in1011.9 mb 0.00 in0.0 mm 0.00 in0.0 mm 0.01 in0.3 mm
05:27 PM 50.4°F10.2°C 37.6°F3.1°C 62% 4.0 mph W6.4 kmh W 9.0 mph14.5 kmh 29.88 in1011.9 mb 0.00 in0.0 mm 0.00 in0.0 mm 0.01 in0.3 mm
05:32 PM 50.4°F10.2°C 37.6°F3.1°C 62% 3.0 mph W4.8 kmh W 10.0 mph16.1 kmh 29.88 in1011.9 mb 0.00 in0.0 mm 0.00 in0.0 mm 0.01 in0.3 mm
05:37 PM 50.5°F10.3°C 38.1°F3.4°C 63% 4.0 mph WNW6.4 kmh WNW 10.0 mph16.1 kmh 29.88 in1011.9 mb 0.00 in0.0 mm 0.00 in0.0 mm 0.01 in0.3 mm
05:42 PM 50.4°F10.2°C 38.0°F3.3°C 63% 3.0 mph NW4.8 kmh NW 10.0 mph16.1 kmh 29.88 in1011.9 mb 0.00 in0.0 mm 0.00 in0.0 mm 0.01 in0.3 mm
05:47 PM 50.5°F10.3°C 38.1°F3.4°C 63% 2.0 mph WNW3.2 kmh WNW 10.0 mph16.1 kmh 29.88 in1011.9 mb 0.00 in0.0 mm 0.00 in0.0 mm 0.01 in0.3 mm
05:52 PM 50.5°F10.3°C 38.5°F3.6°C 64% 3.0 mph NW4.8 kmh NW 9.0 mph14.5 kmh 29.88 in1011.9 mb 0.00 in0.0 mm 0.00 in0.0 mm 0.01 in0.3 mm
05:57 PM 50.5°F10.3°C 38.1°F3.4°C 63% 4.0 mph W6.4 kmh W 9.0 mph14.5 kmh 29.89 in1012.2 mb 0.00 in0.0 mm 0.00 in0.0 mm 0.01 in0.3 mm
06:02 PM 50.5°F10.3°C 38.1°F3.4°C 63% 4.0 mph WNW6.4 kmh WNW 8.0 mph12.9 kmh 29.88 in1011.9 mb 0.00 in0.0 mm 0.00 in0.0 mm 0.01 in0.3 mm
06:07 PM 50.5°F10.3°C 38.1°F3.4°C 63% 2.0 mph WNW3.2 kmh WNW 8.0 mph12.9 kmh 29.89 in1012.2 mb 0.00 in0.0 mm 0.00 in0.0 mm 0.01 in0.3 mm
06:12 PM 50.5°F10.3°C 38.1°F3.4°C 63% 1.0 mph W1.6 kmh W 8.0 mph12.9 kmh 29.89 in1012.2 mb 0.00 in0.0 mm 0.00 in0.0 mm 0.01 in0.3 mm
06:17 PM 50.5°F10.3°C 38.1°F3.4°C 63% 2.0 mph WNW3.2 kmh WNW 8.0 mph12.9 kmh 29.89 in1012.2 mb 0.00 in0.0 mm 0.00 in0.0 mm 0.01 in0.3 mm
06:22 PM 50.5°F10.3°C 38.1°F3.4°C 63% 2.0 mph WNW3.2 kmh WNW 7.0 mph11.3 kmh 29.89 in1012.2 mb 0.00 in0.0 mm 0.00 in0.0 mm 0.01 in0.3 mm
06:27 PM 50.5°F10.3°C 38.1°F3.4°C 63% 1.0 mph W1.6 kmh W 7.0 mph11.3 kmh 29.89 in1012.2 mb 0.00 in0.0 mm 0.00 in0.0 mm 0.01 in0.3 mm
06:32 PM 50.5°F10.3°C 38.1°F3.4°C 63% 5.0 mph W8.0 kmh W 11.0 mph17.7 kmh 29.89 in1012.2 mb 0.00 in0.0 mm 0.00 in0.0 mm 0.01 in0.3 mm
06:37 PM 50.5°F10.3°C 38.1°F3.4°C 63% 1.0 mph N1.6 kmh N 11.0 mph17.7 kmh 29.89 in1012.2 mb 0.00 in0.0 mm 0.00 in0.0 mm 0.01 in0.3 mm
06:42 PM 50.4°F10.2°C 38.0°F3.3°C 63% 1.0 mph NE1.6 kmh NE 2.0 mph3.2 kmh 29.89 in1012.2 mb 0.00 in0.0 mm 0.00 in0.0 mm 0.01 in0.3 mm
06:47 PM 50.4°F10.2°C 37.6°F3.1°C 62% 1.0 mph NW1.6 kmh NW 8.0 mph12.9 kmh 29.90 in1012.5 mb 0.00 in0.0 mm 0.00 in0.0 mm 0.01 in0.3 mm
06:52 PM 50.4°F10.2°C 37.6°F3.1°C 62% 1.0 mph W1.6 kmh W 8.0 mph12.9 kmh 29.90 in1012.5 mb 0.00 in0.0 mm 0.00 in0.0 mm 0.01 in0.3 mm
06:57 PM 50.4°F10.2°C 37.6°F3.1°C 62% Calm Calm 8.0 mph12.9 kmh 29.90 in1012.5 mb 0.00 in0.0 mm 0.00 in0.0 mm 0.01 in0.3 mm
07:02 PM 50.3°F10.2°C 37.5°F3.1°C 62% 4.0 mph W6.4 kmh W 8.0 mph12.9 kmh 29.90 in1012.5 mb 0.00 in0.0 mm 0.00 in0.0 mm 0.01 in0.3 mm
07:07 PM 50.3°F10.2°C 37.1°F2.8°C 61% 2.0 mph NNW3.2 kmh NNW 6.0 mph9.7 kmh 29.90 in1012.5 mb 0.00 in0.0 mm 0.00 in0.0 mm 0.01 in0.3 mm
07:12 PM 50.3°F10.2°C 37.1°F2.8°C 61% 3.0 mph WSW4.8 kmh WSW 6.0 mph9.7 kmh 29.90 in1012.5 mb 0.00 in0.0 mm 0.00 in0.0 mm 0.01 in0.3 mm
07:17 PM 50.3°F10.2°C 37.1°F2.8°C 61% Calm Calm 4.0 mph6.4 kmh 29.90 in1012.5 mb 0.00 in0.0 mm 0.00 in0.0 mm 0.01 in0.3 mm
07:22 PM 50.3°F10.2°C 37.1°F2.8°C 61% 1.0 mph NNE1.6 kmh NNE 4.0 mph6.4 kmh 29.90 in1012.5 mb 0.00 in0.0 mm 0.00 in0.0 mm 0.01 in0.3 mm
07:27 PM 50.3°F10.2°C 37.1°F2.8°C 61% Calm Calm 3.0 mph4.8 kmh 29.91 in1012.9 mb 0.00 in0.0 mm 0.00 in0.0 mm 0.01 in0.3 mm
07:32 PM 50.2°F10.1°C 37.0°F2.8°C 61% Calm Calm 1.0 mph1.6 kmh 29.90 in1012.5 mb 0.00 in0.0 mm 0.00 in0.0 mm 0.01 in0.3 mm
07:37 PM 50.2°F10.1°C 37.0°F2.8°C 61% 1.0 mph NW1.6 kmh NW 10.0 mph16.1 kmh 29.91 in1012.9 mb 0.00 in0.0 mm 0.00 in0.0 mm 0.01 in0.3 mm
07:42 PM 50.2°F10.1°C 37.0°F2.8°C 61% Calm Calm 10.0 mph16.1 kmh 29.91 in1012.9 mb 0.00 in0.0 mm 0.00 in0.0 mm 0.01 in0.3 mm
07:47 PM 50.2°F10.1°C 37.0°F2.8°C 61% 1.0 mph WNW1.6 kmh WNW 10.0 mph16.1 kmh 29.91 in1012.9 mb 0.00 in0.0 mm 0.00 in0.0 mm 0.01 in0.3 mm
07:52 PM 50.2°F10.1°C 37.4°F3.0°C 62% Calm Calm 10.0 mph16.1 kmh 29.91 in1012.9 mb 0.00 in0.0 mm 0.00 in0.0 mm 0.01 in0.3 mm
07:57 PM 50.2°F10.1°C 37.4°F3.0°C 62% Calm Calm 4.0 mph6.4 kmh 29.91 in1012.9 mb 0.00 in0.0 mm 0.00 in0.0 mm 0.01 in0.3 mm
08:02 PM 50.2°F10.1°C 37.0°F2.8°C 61% 2.0 mph NNE3.2 kmh NNE 4.0 mph6.4 kmh 29.91 in1012.9 mb 0.00 in0.0 mm 0.00 in0.0 mm 0.01 in0.3 mm
08:07 PM 50.1°F10.1°C 36.9°F2.7°C 61% Calm Calm 4.0 mph6.4 kmh 29.91 in1012.9 mb 0.00 in0.0 mm 0.00 in0.0 mm 0.01 in0.3 mm
08:12 PM 50.1°F10.1°C 36.9°F2.7°C 61% Calm Calm 3.0 mph4.8 kmh 29.91 in1012.9 mb 0.00 in0.0 mm 0.00 in0.0 mm 0.01 in0.3 mm
08:17 PM 50.0°F10.0°C 36.8°F2.7°C 61% 1.0 mph WNW1.6 kmh WNW 6.0 mph9.7 kmh 29.91 in1012.9 mb 0.00 in0.0 mm 0.00 in0.0 mm 0.01 in0.3 mm
08:22 PM 49.9°F9.9°C 36.7°F2.6°C 61% Calm Calm 2.0 mph3.2 kmh 29.91 in1012.9 mb 0.00 in0.0 mm 0.00 in0.0 mm 0.01 in0.3 mm
08:27 PM 49.9°F9.9°C 36.7°F2.6°C 61% 4.0 mph N6.4 kmh N 4.0 mph6.4 kmh 29.92 in1013.2 mb 0.00 in0.0 mm 0.00 in0.0 mm 0.01 in0.3 mm
08:32 PM 49.9°F9.9°C 36.7°F2.6°C 61% Calm Calm 5.0 mph8.0 kmh 29.92 in1013.2 mb 0.00 in0.0 mm 0.00 in0.0 mm 0.01 in0.3 mm
08:37 PM 49.9°F9.9°C 36.7°F2.6°C 61% 1.0 mph NE1.6 kmh NE 2.0 mph3.2 kmh 29.92 in1013.2 mb 0.00 in0.0 mm 0.00 in0.0 mm 0.01 in0.3 mm
08:42 PM 49.9°F9.9°C 36.7°F2.6°C 61% 1.0 mph NNE1.6 kmh NNE 5.0 mph8.0 kmh 29.92 in1013.2 mb 0.00 in0.0 mm 0.00 in0.0 mm 0.01 in0.3 mm
08:47 PM 49.9°F9.9°C 37.1°F2.8°C 62% 2.0 mph N3.2 kmh N 5.0 mph8.0 kmh 29.92 in1013.2 mb 0.00 in0.0 mm 0.00 in0.0 mm 0.01 in0.3 mm
08:52 PM 49.9°F9.9°C 37.1°F2.8°C 62% Calm Calm 10.0 mph16.1 kmh 29.92 in1013.2 mb 0.00 in0.0 mm 0.00 in0.0 mm 0.01 in0.3 mm
08:57 PM 50.0°F10.0°C 37.2°F2.9°C 62% 2.0 mph NW3.2 kmh NW 5.0 mph8.0 kmh 29.92 in1013.2 mb 0.00 in0.0 mm 0.00 in0.0 mm 0.01 in0.3 mm
09:02 PM 50.0°F10.0°C 36.8°F2.7°C 61% 3.0 mph N4.8 kmh N 7.0 mph11.3 kmh 29.92 in1013.2 mb 0.00 in0.0 mm 0.00 in0.0 mm 0.01 in0.3 mm
09:07 PM 50.1°F10.1°C 36.9°F2.7°C 61% 2.0 mph NNE3.2 kmh NNE 7.0 mph11.3 kmh 29.92 in1013.2 mb 0.00 in0.0 mm 0.00 in0.0 mm 0.01 in0.3 mm
09:12 PM 50.2°F10.1°C 37.0°F2.8°C 61% 1.0 mph W1.6 kmh W 10.0 mph16.1 kmh 29.92 in1013.2 mb 0.00 in0.0 mm 0.00 in0.0 mm 0.01 in0.3 mm
09:17 PM 50.4°F10.2°C 36.7°F2.6°C 60% 1.0 mph NW1.6 kmh NW 10.0 mph16.1 kmh 29.93 in1013.5 mb 0.00 in0.0 mm 0.00 in0.0 mm 0.01 in0.3 mm
09:22 PM 50.5°F10.3°C 36.8°F2.7°C 60% Calm Calm 7.0 mph11.3 kmh 29.92 in1013.2 mb 0.00 in0.0 mm 0.00 in0.0 mm 0.01 in0.3 mm
09:27 PM 50.6°F10.3°C 36.5°F2.5°C 59% 3.0 mph NNW4.8 kmh NNW 7.0 mph11.3 kmh 29.92 in1013.2 mb 0.00 in0.0 mm 0.00 in0.0 mm 0.01 in0.3 mm
09:32 PM 50.7°F10.4°C 36.6°F2.6°C 59% 5.0 mph NNE8.0 kmh NNE 7.0 mph11.3 kmh 29.92 in1013.2 mb 0.00 in0.0 mm 0.00 in0.0 mm 0.01 in0.3 mm
09:37 PM 50.7°F10.4°C 36.6°F2.6°C 59% Calm Calm 7.0 mph11.3 kmh 29.93 in1013.5 mb 0.00 in0.0 mm 0.00 in0.0 mm 0.01 in0.3 mm
09:42 PM 50.7°F10.4°C 36.1°F2.3°C 58% 2.0 mph NNE3.2 kmh NNE 7.0 mph11.3 kmh 29.93 in1013.5 mb 0.00 in0.0 mm 0.00 in0.0 mm 0.01 in0.3 mm
09:47 PM 50.7°F10.4°C 36.1°F2.3°C 58% Calm Calm 7.0 mph11.3 kmh 29.93 in1013.5 mb 0.00 in0.0 mm 0.00 in0.0 mm 0.01 in0.3 mm
09:52 PM 50.7°F10.4°C 35.7°F2.1°C 57% 1.0 mph NNE1.6 kmh NNE 7.0 mph11.3 kmh 29.93 in1013.5 mb 0.00 in0.0 mm 0.00 in0.0 mm 0.01 in0.3 mm
09:57 PM 50.8°F10.4°C 35.8°F2.1°C 57% Calm Calm 7.0 mph11.3 kmh 29.93 in1013.5 mb 0.00 in0.0 mm 0.00 in0.0 mm 0.01 in0.3 mm
10:02 PM 50.8°F10.4°C 35.8°F2.1°C 57% 4.0 mph W6.4 kmh W 7.0 mph11.3 kmh 29.93 in1013.5 mb 0.00 in0.0 mm 0.00 in0.0 mm 0.01 in0.3 mm
10:07 PM 50.7°F10.4°C 35.7°F2.1°C 57% 1.0 mph NNW1.6 kmh NNW 7.0 mph11.3 kmh 29.93 in1013.5 mb 0.00 in0.0 mm 0.00 in0.0 mm 0.01 in0.3 mm
10:12 PM 50.7°F10.4°C 35.7°F2.1°C 57% Calm Calm 5.0 mph8.0 kmh 29.93 in1013.5 mb 0.00 in0.0 mm 0.00 in0.0 mm 0.01 in0.3 mm
10:17 PM 50.6°F10.3°C 35.6°F2.0°C 57% 1.0 mph N1.6 kmh N 5.0 mph8.0 kmh 29.93 in1013.5 mb 0.00 in0.0 mm 0.00 in0.0 mm 0.01 in0.3 mm
10:22 PM 50.6°F10.3°C 35.6°F2.0°C 57% Calm Calm 5.0 mph8.0 kmh 29.94 in1013.9 mb 0.00 in0.0 mm 0.00 in0.0 mm 0.01 in0.3 mm
10:27 PM 50.5°F10.3°C 35.5°F1.9°C 57% Calm Calm 2.0 mph3.2 kmh 29.94 in1013.9 mb 0.00 in0.0 mm 0.00 in0.0 mm 0.01 in0.3 mm
10:32 PM 50.5°F10.3°C 35.5°F1.9°C 57% Calm Calm -- 29.94 in1013.9 mb 0.00 in0.0 mm 0.00 in0.0 mm 0.01 in0.3 mm
10:37 PM 50.4°F10.2°C 35.4°F1.9°C 57% 3.0 mph W4.8 kmh W 6.0 mph9.7 kmh 29.94 in1013.9 mb 0.00 in0.0 mm 0.00 in0.0 mm 0.01 in0.3 mm
10:42 PM 50.2°F10.1°C 34.8°F1.6°C 56% Calm Calm 6.0 mph9.7 kmh 29.94 in1013.9 mb 0.00 in0.0 mm 0.00 in0.0 mm 0.01 in0.3 mm
10:47 PM 50.1°F10.1°C 34.7°F1.5°C 56% 1.0 mph NW1.6 kmh NW 6.0 mph9.7 kmh 29.94 in1013.9 mb 0.00 in0.0 mm 0.00 in0.0 mm 0.01 in0.3 mm
10:52 PM 49.9°F9.9°C 34.5°F1.4°C 56% Calm Calm 6.0 mph9.7 kmh 29.94 in1013.9 mb 0.00 in0.0 mm 0.00 in0.0 mm 0.01 in0.3 mm
10:57 PM 49.8°F9.9°C 34.4°F1.3°C 56% Calm Calm 6.0 mph9.7 kmh 29.94 in1013.9 mb 0.00 in0.0 mm 0.00 in0.0 mm 0.01 in0.3 mm
11:02 PM 49.7°F9.8°C 34.3°F1.3°C 56% Calm Calm 6.0 mph9.7 kmh 29.94 in1013.9 mb 0.00 in0.0 mm 0.00 in0.0 mm 0.01 in0.3 mm
11:07 PM 49.5°F9.7°C 34.6°F1.4°C 57% Calm Calm -- 29.94 in1013.9 mb 0.00 in0.0 mm 0.00 in0.0 mm 0.01 in0.3 mm
11:12 PM 49.4°F9.7°C 34.5°F1.4°C 57% 1.0 mph N1.6 kmh N 2.0 mph3.2 kmh 29.94 in1013.9 mb 0.00 in0.0 mm 0.00 in0.0 mm 0.01 in0.3 mm
11:19 PM 49.1°F9.5°C 34.2°F1.2°C 57% 2.0 mph W3.2 kmh W 2.0 mph3.2 kmh 29.94 in1013.9 mb 0.00 in0.0 mm 0.00 in0.0 mm 0.01 in0.3 mm
11:24 PM 49.0°F9.4°C 34.6°F1.4°C 58% Calm Calm 2.0 mph3.2 kmh 29.94 in1013.9 mb 0.00 in0.0 mm 0.00 in0.0 mm 0.01 in0.3 mm
11:29 PM 49.0°F9.4°C 34.6°F1.4°C 58% 2.0 mph N3.2 kmh N 3.0 mph4.8 kmh 29.94 in1013.9 mb 0.00 in0.0 mm 0.00 in0.0 mm 0.01 in0.3 mm
11:34 PM 49.0°F9.4°C 34.6°F1.4°C 58% Calm Calm -- 29.94 in1013.9 mb 0.00 in0.0 mm 0.00 in0.0 mm 0.01 in0.3 mm
11:39 PM 49.1°F9.5°C 34.6°F1.4°C 58% Calm Calm -- 29.94 in1013.9 mb 0.00 in0.0 mm 0.00 in0.0 mm 0.01 in0.3 mm
11:44 PM 49.1°F9.5°C 34.2°F1.2°C 57% Calm Calm 2.0 mph3.2 kmh 29.94 in1013.9 mb 0.00 in0.0 mm 0.00 in0.0 mm 0.01 in0.3 mm
11:49 PM 49.3°F9.6°C 34.8°F1.6°C 58% Calm Calm 1.0 mph1.6 kmh 29.94 in1013.9 mb 0.00 in0.0 mm 0.00 in0.0 mm 0.01 in0.3 mm
11:54 PM 49.3°F9.6°C 34.8°F1.6°C 58% 1.0 mph NW1.6 kmh NW 1.0 mph1.6 kmh 29.94 in1013.9 mb 0.00 in0.0 mm 0.00 in0.0 mm 0.01 in0.3 mm
11:59 PM 49.3°F9.6°C 35.3°F1.8°C 59% Calm Calm 6.0 mph9.7 kmh 29.94 in1013.9 mb 0.00 in0.0 mm 0.00 in0.0 mm 0.01 in0.3 mm